createdAt,value
2018-08-28T00:01:50.488Z,0.53
2018-08-28T00:04:55.030Z,0.60
2018-08-28T00:07:59.430Z,0.80
2018-08-28T00:11:04.006Z,0.70
2018-08-28T00:14:08.378Z,0.60
2018-08-28T00:17:13.425Z,0.60
2018-08-28T00:20:17.858Z,0.88
2018-08-28T00:23:22.272Z,0.60
2018-08-28T00:26:26.865Z,0.60
2018-08-28T00:29:31.203Z,0.70
2018-08-28T00:32:35.614Z,0.77
2018-08-28T00:35:40.238Z,0.67
2018-08-28T00:38:44.880Z,0.70
2018-08-28T00:41:49.282Z,1.00
2018-08-28T00:44:53.889Z,0.60
2018-08-28T00:47:58.297Z,0.83
2018-08-28T00:51:02.735Z,0.70
2018-08-28T00:54:07.106Z,0.73
2018-08-28T00:57:11.498Z,0.63
2018-08-28T01:00:15.869Z,0.50
2018-08-28T01:03:20.220Z,0.63
2018-08-28T01:06:24.564Z,0.80
2018-08-28T01:09:28.920Z,0.70
2018-08-28T01:12:33.546Z,0.70
2018-08-28T01:15:38.065Z,0.85
2018-08-28T01:18:42.614Z,0.80
2018-08-28T01:21:46.972Z,0.90
2018-08-28T01:24:52.286Z,0.70
2018-08-28T01:27:56.660Z,0.90
2018-08-28T01:31:01.069Z,0.68
2018-08-28T01:34:05.536Z,0.70
2018-08-28T01:37:09.925Z,0.73
2018-08-28T01:40:14.294Z,2.37
2018-08-28T01:43:24.643Z,3.83
2018-08-28T01:46:29.266Z,3.60
2018-08-28T01:49:33.649Z,4.87
2018-08-28T01:52:38.010Z,3.33
2018-08-28T01:55:42.746Z,2.13
2018-08-28T01:58:47.093Z,1.80
2018-08-28T02:01:51.452Z,2.90
2018-08-28T02:04:55.884Z,1.42
2018-08-28T02:08:00.231Z,1.17
2018-08-28T02:11:04.615Z,0.90
2018-08-28T02:14:09.010Z,0.80
2018-08-28T02:17:13.385Z,1.00
2018-08-28T02:20:17.749Z,0.67
2018-08-28T02:23:22.132Z,1.10
2018-08-28T02:26:26.533Z,1.40
2018-08-28T02:29:30.918Z,1.25
2018-08-28T02:32:35.356Z,1.20
2018-08-28T02:35:39.734Z,1.07
2018-08-28T02:38:44.127Z,1.80
2018-08-28T02:41:48.486Z,2.13
2018-08-28T02:44:53.520Z,4.00
2018-08-28T02:47:57.893Z,2.43
2018-08-28T02:51:02.257Z,1.70
2018-08-28T02:54:06.946Z,2.00
2018-08-28T02:57:11.317Z,1.90
2018-08-28T03:00:15.675Z,2.37
2018-08-28T03:03:20.385Z,4.10
2018-08-28T03:06:25.034Z,3.43
2018-08-28T03:09:29.460Z,3.10
2018-08-28T03:12:33.821Z,4.93
2018-08-28T03:15:38.399Z,5.83
2018-08-28T03:18:43.947Z,5.77
2018-08-28T03:21:48.391Z,6.90
2018-08-28T03:24:52.813Z,2.50
2018-08-28T03:27:57.316Z,3.93
2018-08-28T03:31:01.813Z,4.97
2018-08-28T03:34:06.254Z,3.03
2018-08-28T03:37:10.720Z,1.63
2018-08-28T03:40:15.068Z,1.23
2018-08-28T03:43:19.863Z,1.30
2018-08-28T03:46:24.441Z,1.10
2018-08-28T03:49:28.843Z,1.20
2018-08-28T03:52:33.423Z,0.80
2018-08-28T03:55:37.833Z,0.90
2018-08-28T03:58:42.603Z,1.07
2018-08-28T04:01:46.994Z,0.90
2018-08-28T04:04:51.909Z,1.33
2018-08-28T04:07:56.375Z,2.77
2018-08-28T04:11:01.230Z,3.47
2018-08-28T04:14:05.618Z,3.37
2018-08-28T04:17:10.524Z,1.67
2018-08-28T04:20:14.896Z,1.20
2018-08-28T04:23:20.185Z,1.30
2018-08-28T04:26:25.395Z,0.93
2018-08-28T04:29:30.037Z,1.07
2018-08-28T04:32:34.553Z,1.70
2018-08-28T04:35:39.197Z,2.27
2018-08-28T04:38:43.650Z,2.80
2018-08-28T04:41:48.223Z,2.27
2018-08-28T04:44:52.653Z,2.40
2018-08-28T04:47:57.140Z,1.60
2018-08-28T04:51:01.686Z,1.27
2018-08-28T04:54:06.590Z,0.93
2018-08-28T04:57:11.231Z,4.17
2018-08-28T05:00:15.754Z,2.90
2018-08-28T05:03:20.155Z,3.43
2018-08-28T05:06:24.545Z,1.00
2018-08-28T05:09:29.203Z,1.40
2018-08-28T05:12:33.619Z,1.20
2018-08-28T05:15:38.069Z,3.87
2018-08-28T05:18:42.411Z,6.17
2018-08-28T05:21:46.814Z,8.60
2018-08-28T05:24:51.458Z,4.97
2018-08-28T05:27:55.910Z,3.00
2018-08-28T05:31:00.391Z,3.67
2018-08-28T05:34:05.284Z,3.20
2018-08-28T05:37:09.662Z,2.93
2018-08-28T05:40:14.106Z,3.80
2018-08-28T05:43:18.543Z,3.30
2018-08-28T05:46:23.028Z,3.20
2018-08-28T05:49:27.513Z,2.53
2018-08-28T05:52:31.968Z,1.63
2018-08-28T05:55:37.063Z,1.30
2018-08-28T05:58:41.650Z,1.43
2018-08-28T06:01:46.256Z,1.60
2018-08-28T06:04:50.703Z,1.20
2018-08-28T06:07:55.128Z,1.00
2018-08-28T06:10:59.698Z,1.10
2018-08-28T06:14:04.303Z,1.43
2018-08-28T06:17:08.773Z,1.53
2018-08-28T06:20:13.343Z,1.10
2018-08-28T06:23:18.603Z,1.90
2018-08-28T06:26:23.636Z,1.50
2018-08-28T06:29:28.042Z,1.37
2018-08-28T06:32:32.997Z,1.10
2018-08-28T06:35:37.459Z,1.23
2018-08-28T06:38:41.848Z,1.10
2018-08-28T06:41:46.333Z,1.20
2018-08-28T06:44:51.116Z,1.20
2018-08-28T06:47:55.591Z,1.27
2018-08-28T06:51:00.084Z,1.57
2018-08-28T06:54:04.481Z,1.10
2018-08-28T06:57:09.006Z,1.60
2018-08-28T07:00:13.434Z,1.10
2018-08-28T07:03:17.854Z,1.27
2018-08-28T07:06:22.292Z,1.47
2018-08-28T07:09:26.661Z,1.17
2018-08-28T07:12:31.645Z,1.43
2018-08-28T07:15:36.372Z,1.63
2018-08-28T07:18:40.962Z,1.93
2018-08-28T07:21:45.430Z,1.60
2018-08-28T07:24:49.968Z,1.20
2018-08-28T07:27:54.345Z,1.20
2018-08-28T07:30:58.745Z,1.70
2018-08-28T07:34:03.366Z,1.20
2018-08-28T07:38:11.162Z,1.00
2018-08-28T07:41:15.655Z,0.87
2018-08-28T07:44:20.213Z,1.20
2018-08-28T07:47:24.744Z,1.10
2018-08-28T07:50:29.130Z,1.20
2018-08-28T07:53:33.611Z,1.30
2018-08-28T07:56:39.153Z,1.30
2018-08-28T07:59:43.697Z,1.27
2018-08-28T08:02:48.127Z,0.97
2018-08-28T08:05:54.942Z,1.20
2018-08-28T08:08:59.833Z,1.23
2018-08-28T08:12:04.319Z,1.27
2018-08-28T08:15:08.805Z,1.50
2018-08-28T08:18:13.270Z,1.23
2018-08-28T08:21:17.813Z,1.73
2018-08-28T08:24:22.267Z,1.30
2018-08-28T08:27:26.675Z,1.60
2018-08-28T08:30:31.393Z,1.57
2018-08-28T08:33:35.970Z,1.50
2018-08-28T08:36:40.388Z,1.50
2018-08-28T08:39:44.816Z,1.70
2018-08-28T08:42:49.665Z,1.70
2018-08-28T08:45:54.038Z,1.40
2018-08-28T08:48:58.453Z,1.40
2018-08-28T08:52:03.048Z,1.70
2018-08-28T08:55:07.469Z,1.43
2018-08-28T08:58:12.091Z,1.90
2018-08-28T09:01:16.900Z,1.37
2018-08-28T09:04:21.326Z,1.40
2018-08-28T09:07:26.040Z,1.20
2018-08-28T09:10:30.404Z,1.33
2018-08-28T09:13:35.097Z,1.73
2018-08-28T09:16:41.112Z,1.70
2018-08-28T09:19:45.785Z,1.40
2018-08-28T09:22:50.213Z,1.70
2018-08-28T09:25:54.613Z,2.10
2018-08-28T09:28:59.022Z,1.82
2018-08-28T09:32:04.274Z,1.57
2018-08-28T09:35:08.691Z,1.70
2018-08-28T09:38:13.164Z,1.60
2018-08-28T09:41:17.515Z,1.20
2018-08-28T09:44:21.893Z,1.43
2018-08-28T09:47:26.358Z,1.50
2018-08-28T09:50:30.731Z,1.40
2018-08-28T09:53:35.149Z,1.40
2018-08-28T09:56:39.566Z,1.30
2018-08-28T09:59:44.362Z,1.40
2018-08-28T10:02:48.932Z,1.40
2018-08-28T10:05:53.377Z,1.97
2018-08-28T10:08:57.904Z,1.53
2018-08-28T10:12:02.289Z,1.57
2018-08-28T10:15:07.561Z,1.77
2018-08-28T10:18:12.067Z,1.50
2018-08-28T10:21:16.506Z,1.70
2018-08-28T10:24:21.109Z,1.60
2018-08-28T10:27:25.575Z,1.50
2018-08-28T10:30:30.082Z,1.90
2018-08-28T10:33:34.445Z,1.53
2018-08-28T10:36:38.807Z,1.57
2018-08-28T10:39:43.772Z,1.90
2018-08-28T10:42:48.175Z,1.90
2018-08-28T10:45:52.709Z,1.90
2018-08-28T10:48:57.536Z,1.97
2018-08-28T10:52:07.349Z,2.30
2018-08-28T10:55:11.885Z,1.90
2018-08-28T10:58:16.374Z,1.90
2018-08-28T11:01:20.861Z,2.17
2018-08-28T11:04:25.533Z,1.90
2018-08-28T11:07:29.901Z,1.97
2018-08-28T11:10:34.582Z,2.23
2018-08-28T11:13:39.005Z,2.00
2018-08-28T11:16:44.255Z,2.20
2018-08-28T11:19:48.823Z,2.00
2018-08-28T11:22:53.340Z,2.10
2018-08-28T11:25:57.734Z,2.20
2018-08-28T11:29:02.413Z,2.73
2018-08-28T11:32:07.015Z,2.17
2018-08-28T11:35:11.570Z,2.00
2018-08-28T11:38:16.227Z,2.33
2018-08-28T11:41:20.636Z,2.37
2018-08-28T11:44:25.061Z,2.02
2018-08-28T11:47:29.446Z,2.10
2018-08-28T11:50:34.045Z,1.97
2018-08-28T11:53:38.441Z,2.23
2018-08-28T11:56:42.919Z,2.33
2018-08-28T11:59:47.466Z,2.40
2018-08-28T12:02:51.942Z,2.63
2018-08-28T12:05:56.514Z,2.03
2018-08-28T12:09:00.907Z,2.43
2018-08-28T12:12:05.902Z,2.73
2018-08-28T12:15:10.397Z,2.03
2018-08-28T12:18:14.770Z,2.40
2018-08-28T12:21:19.240Z,2.50
2018-08-28T12:24:23.594Z,2.70
2018-08-28T12:27:28.022Z,2.10
2018-08-28T12:30:32.532Z,1.97
2018-08-28T12:33:36.937Z,2.20
2018-08-28T12:36:41.350Z,2.20
2018-08-28T12:39:45.912Z,2.53
2018-08-28T12:42:50.355Z,2.40
2018-08-28T12:45:54.809Z,2.10
2018-08-28T12:48:59.193Z,2.07
2018-08-28T12:52:03.969Z,2.37
2018-08-28T12:55:08.456Z,2.20
2018-08-28T12:58:13.005Z,2.00
2018-08-28T13:01:17.432Z,2.37
2018-08-28T13:04:22.139Z,2.40
2018-08-28T13:07:26.649Z,2.10
2018-08-28T13:10:31.055Z,2.40
2018-08-28T13:13:35.481Z,2.43
2018-08-28T13:16:40.042Z,2.17
2018-08-28T13:19:44.572Z,2.33
2018-08-28T13:22:51.148Z,2.50
2018-08-28T13:25:55.608Z,2.50
2018-08-28T13:28:59.986Z,2.30
2018-08-28T13:32:05.721Z,2.20
2018-08-28T13:35:10.506Z,2.25
2018-08-28T13:38:14.889Z,2.30
2018-08-28T13:41:19.358Z,1.93
2018-08-28T13:44:23.815Z,2.77
2018-08-28T13:47:28.227Z,2.70
2018-08-28T13:50:32.744Z,2.23
2018-08-28T13:53:37.143Z,2.50
2018-08-28T13:56:41.478Z,2.17
2018-08-28T13:59:45.979Z,2.27
2018-08-28T14:02:50.818Z,2.63
2018-08-28T14:05:55.383Z,2.30
2018-08-28T14:08:59.995Z,2.33
2018-08-28T14:12:04.957Z,2.37
2018-08-28T14:15:09.650Z,2.60
2018-08-28T14:18:14.061Z,3.02
2018-08-28T14:21:18.626Z,2.50
2018-08-28T14:24:23.273Z,2.40
2018-08-28T14:27:27.693Z,2.53
2018-08-28T14:30:32.110Z,2.40
2018-08-28T14:33:36.495Z,2.47
2018-08-28T14:36:40.925Z,2.60
2018-08-28T14:39:45.591Z,2.43
2018-08-28T14:42:49.985Z,3.07
2018-08-28T14:45:54.412Z,2.97
2018-08-28T14:48:58.793Z,2.87
2018-08-28T14:52:03.275Z,3.57
2018-08-28T14:55:07.690Z,3.00
2018-08-28T14:58:12.150Z,2.37
2018-08-28T15:01:16.590Z,2.73
2018-08-28T15:04:21.600Z,2.57
2018-08-28T15:07:26.257Z,3.20
2018-08-28T15:10:30.703Z,3.00
2018-08-28T15:13:35.243Z,2.67
2018-08-28T15:16:39.705Z,2.80
2018-08-28T15:19:44.393Z,2.90
2018-08-28T15:22:48.829Z,3.00
2018-08-28T15:25:53.275Z,2.80
2018-08-28T15:28:57.712Z,2.50
2018-08-28T15:32:02.233Z,2.47
2018-08-28T15:35:07.052Z,3.33
2018-08-28T15:38:11.614Z,2.80
2018-08-28T15:41:16.074Z,2.90
2018-08-28T15:44:20.579Z,3.17
2018-08-28T15:47:25.192Z,2.80
2018-08-28T15:50:29.833Z,2.97
2018-08-28T15:53:34.357Z,2.73
2018-08-28T15:56:38.893Z,3.00
2018-08-28T15:59:43.400Z,2.80
2018-08-28T16:02:47.837Z,2.70
2018-08-28T16:05:52.239Z,3.97
2018-08-28T16:08:56.658Z,2.97
2018-08-28T16:12:01.134Z,3.37
2018-08-28T16:15:05.869Z,3.27
2018-08-28T16:18:10.535Z,2.90
2018-08-28T16:21:14.810Z,3.10
2018-08-28T16:24:19.229Z,3.00
2018-08-28T16:27:23.709Z,3.53
2018-08-28T16:30:28.959Z,3.80
2018-08-28T16:33:33.675Z,3.87
2018-08-28T16:36:38.539Z,3.73
2018-08-28T16:39:42.959Z,3.77
2018-08-28T16:42:48.461Z,4.70
2018-08-28T16:45:52.905Z,3.70
2018-08-28T16:48:57.430Z,3.83
2018-08-28T16:52:02.212Z,4.20
2018-08-28T16:55:06.642Z,3.63
2018-08-28T16:58:11.319Z,3.90
2018-08-28T17:01:15.986Z,3.33
2018-08-28T17:04:20.628Z,4.13
2018-08-28T17:07:28.315Z,5.17
2018-08-28T17:10:33.031Z,6.90
2018-08-28T17:13:38.162Z,5.70
2018-08-28T17:16:42.709Z,3.70
2018-08-28T17:19:47.157Z,3.87
2018-08-28T17:22:51.642Z,3.53
2018-08-28T17:25:56.835Z,4.13
2018-08-28T17:29:01.299Z,4.23
2018-08-28T17:32:05.965Z,3.70
2018-08-28T17:35:10.982Z,3.50
2018-08-28T17:38:15.482Z,3.67
2018-08-28T17:41:19.897Z,3.53
2018-08-28T17:44:24.425Z,3.90
2018-08-28T17:47:29.146Z,4.00
2018-08-28T17:50:33.561Z,3.77
2018-08-28T17:53:37.967Z,3.60
2018-08-28T17:56:44.808Z,3.47
2018-08-28T17:59:49.427Z,2.85
2018-08-28T18:02:54.079Z,3.60
2018-08-28T18:05:58.658Z,3.00
2018-08-28T18:09:03.347Z,3.47
2018-08-28T18:12:08.393Z,3.43
2018-08-28T18:15:12.975Z,3.57
2018-08-28T18:18:17.613Z,3.73
2018-08-28T18:21:22.107Z,3.60
2018-08-28T18:24:27.102Z,4.40
2018-08-28T18:27:31.821Z,3.40
2018-08-28T18:30:36.450Z,4.10
2018-08-28T18:33:40.938Z,4.63
2018-08-28T18:36:45.450Z,5.03
2018-08-28T18:39:50.067Z,4.80
2018-08-28T18:42:55.242Z,5.30
2018-08-28T18:45:59.741Z,4.60
2018-08-28T18:49:04.273Z,4.80
2018-08-28T18:52:08.932Z,4.67
2018-08-28T18:55:13.454Z,5.33
2018-08-28T18:58:18.002Z,4.37
2018-08-28T19:01:22.459Z,3.90
2018-08-28T19:04:33.617Z,4.27
2018-08-28T19:07:38.498Z,4.20
2018-08-28T19:10:43.140Z,4.93
2018-08-28T19:13:48.020Z,4.57
2018-08-28T19:16:52.579Z,4.13
2018-08-28T19:19:56.998Z,4.20
2018-08-28T19:23:02.615Z,4.93
2018-08-28T19:26:07.190Z,4.63
2018-08-28T19:29:11.821Z,5.00
2018-08-28T19:32:16.432Z,4.40
2018-08-28T19:35:20.990Z,4.37
2018-08-28T19:38:25.800Z,4.43
2018-08-28T19:41:30.218Z,4.60
2018-08-28T19:44:34.682Z,7.50
2018-08-28T19:47:39.338Z,6.03
2018-08-28T19:50:43.773Z,5.53
2018-08-28T19:53:48.585Z,4.70
2018-08-28T19:56:53.061Z,5.00
2018-08-28T19:59:57.519Z,6.43
2018-08-28T20:03:02.179Z,6.10
2018-08-28T20:06:06.678Z,6.20
2018-08-28T20:09:11.123Z,4.87
2018-08-28T20:12:17.111Z,4.73
2018-08-28T20:15:21.580Z,4.77
2018-08-28T20:18:26.252Z,4.67
2018-08-28T20:21:31.125Z,5.20
2018-08-28T20:24:35.641Z,5.13
2018-08-28T20:27:40.263Z,4.20
2018-08-28T20:30:44.892Z,4.80
2018-08-28T20:33:49.304Z,4.37
2018-08-28T20:36:53.788Z,4.33
2018-08-28T20:39:58.387Z,4.27
2018-08-28T20:43:03.137Z,6.03
2018-08-28T20:46:07.694Z,5.47
2018-08-28T20:49:12.147Z,5.07
2018-08-28T20:52:16.691Z,5.63
2018-08-28T20:55:21.195Z,6.03
2018-08-28T20:58:25.608Z,9.30
2018-08-28T21:01:29.967Z,9.73
2018-08-28T21:04:34.554Z,7.43
2018-08-28T21:07:39.137Z,7.87
2018-08-28T21:10:43.688Z,8.43
2018-08-28T21:13:48.108Z,6.10
2018-08-28T21:16:52.698Z,5.60
2018-08-28T21:19:57.134Z,10.03
2018-08-28T21:23:01.785Z,10.57
2018-08-28T21:26:06.829Z,7.40
2018-08-28T21:29:11.440Z,5.23
2018-08-28T21:32:15.887Z,5.87
2018-08-28T21:35:20.368Z,5.57
2018-08-28T21:38:24.947Z,5.50
2018-08-28T21:41:29.624Z,5.50
2018-08-28T21:44:34.581Z,5.03
2018-08-28T21:47:38.990Z,4.60
2018-08-28T21:50:43.449Z,5.33
2018-08-28T21:53:47.938Z,5.10
2018-08-28T21:56:52.382Z,6.50
2018-08-28T21:59:56.833Z,6.17
2018-08-28T22:03:01.246Z,6.90
2018-08-28T22:06:17.707Z,8.00
2018-08-28T22:09:22.358Z,5.00
2018-08-28T22:12:26.818Z,4.47
2018-08-28T22:15:31.368Z,5.90
2018-08-28T22:18:35.799Z,5.77
2018-08-28T22:21:40.270Z,6.60
2018-08-28T22:24:44.785Z,9.57
2018-08-28T22:27:49.309Z,5.80
2018-08-28T22:30:53.718Z,5.17
2018-08-28T22:33:58.679Z,9.20
2018-08-28T22:37:03.090Z,13.40
2018-08-28T22:40:11.086Z,14.85
2018-08-28T22:43:19.537Z,22.80
2018-08-28T22:46:23.993Z,26.40
2018-08-28T22:49:28.695Z,19.37
2018-08-28T22:52:33.122Z,12.83
2018-08-28T22:55:37.787Z,10.05
2018-08-28T22:58:42.874Z,12.87
2018-08-28T23:01:47.651Z,9.70
2018-08-28T23:04:52.150Z,8.20
2018-08-28T23:07:56.647Z,5.67
2018-08-28T23:11:01.360Z,4.83
2018-08-28T23:14:06.107Z,6.30
2018-08-28T23:17:10.553Z,5.13
2018-08-28T23:20:14.905Z,10.67
2018-08-28T23:23:19.459Z,12.80
2018-08-28T23:26:23.817Z,10.70
2018-08-28T23:29:28.183Z,9.37
2018-08-28T23:32:32.532Z,11.67
2018-08-28T23:35:37.035Z,9.50
2018-08-28T23:38:41.592Z,7.20
2018-08-28T23:41:46.329Z,7.50
2018-08-28T23:44:50.715Z,13.93
2018-08-28T23:47:55.149Z,18.90
2018-08-28T23:50:59.710Z,20.30
2018-08-28T23:54:04.330Z,15.03
2018-08-28T23:57:09.154Z,14.30
